createdAt,value
2023-01-28T00:01:06.733Z,7.33
2023-01-28T00:03:35.273Z,6.90
2023-01-28T00:06:04.034Z,5.93
2023-01-28T00:08:35.839Z,8.03
2023-01-28T00:11:04.379Z,16.00
2023-01-28T00:13:32.227Z,6.97
2023-01-28T00:16:00.547Z,6.17
2023-01-28T00:18:28.374Z,6.00
2023-01-28T00:20:59.847Z,6.10
2023-01-28T00:23:27.975Z,5.20
2023-01-28T00:25:59.274Z,5.63
2023-01-28T00:28:26.986Z,6.20
2023-01-28T00:30:55.979Z,5.70
2023-01-28T00:33:24.023Z,5.80
2023-01-28T00:35:59.016Z,5.50
2023-01-28T00:38:26.718Z,5.83
2023-01-28T00:40:54.598Z,5.80
2023-01-28T00:43:23.641Z,5.33
2023-01-28T00:45:52.504Z,5.10
2023-01-28T00:48:20.433Z,5.60
2023-01-28T00:50:49.295Z,5.40
2023-01-28T00:53:17.224Z,4.67
2023-01-28T00:55:45.019Z,5.10
2023-01-28T00:58:12.807Z,5.67
2023-01-28T01:00:43.212Z,5.47
2023-01-28T01:03:10.882Z,5.40
2023-01-28T01:05:38.699Z,6.40
2023-01-28T01:08:06.928Z,5.87
2023-01-28T01:10:41.906Z,5.80
2023-01-28T01:13:10.140Z,5.57
2023-01-28T01:15:37.979Z,5.20
2023-01-28T01:18:07.404Z,5.97
2023-01-28T01:20:39.958Z,6.00
2023-01-28T01:23:07.815Z,5.53
2023-01-28T01:25:35.477Z,6.30
2023-01-28T01:28:05.989Z,5.90
2023-01-28T01:30:33.657Z,6.57
2023-01-28T01:33:03.476Z,5.90
2023-01-28T01:35:32.546Z,5.33
2023-01-28T01:38:00.408Z,6.47
2023-01-28T01:40:29.869Z,6.00
2023-01-28T01:42:57.836Z,6.40
2023-01-28T01:45:25.525Z,6.50
2023-01-28T01:47:57.274Z,6.83
2023-01-28T01:50:26.717Z,6.23
2023-01-28T01:52:57.292Z,6.80
2023-01-28T01:55:26.954Z,6.10
2023-01-28T01:57:56.058Z,6.37
2023-01-28T02:00:26.783Z,6.20
2023-01-28T02:02:54.735Z,6.10
2023-01-28T02:05:23.078Z,6.17
2023-01-28T02:07:52.070Z,6.57
2023-01-28T02:10:21.313Z,6.13
2023-01-28T02:12:51.502Z,5.87
2023-01-28T02:15:20.391Z,6.30
2023-01-28T02:17:48.550Z,6.70
2023-01-28T02:20:19.230Z,5.70
2023-01-28T02:23:17.142Z,6.03
2023-01-28T02:26:02.071Z,6.13
2023-01-28T02:28:33.564Z,6.10
2023-01-28T02:31:04.765Z,6.77
2023-01-28T02:33:36.019Z,6.00
2023-01-28T02:36:07.451Z,6.00
2023-01-28T02:38:37.428Z,5.60
2023-01-28T02:41:06.886Z,4.80
2023-01-28T02:43:36.886Z,5.37
2023-01-28T02:46:31.783Z,4.03
2023-01-28T02:48:59.586Z,4.97
2023-01-28T02:51:32.983Z,5.17
2023-01-28T02:54:01.657Z,5.00
2023-01-28T02:56:31.209Z,5.37
2023-01-28T02:59:22.887Z,4.90
2023-01-28T03:01:50.626Z,5.40
2023-01-28T03:04:20.976Z,5.87
2023-01-28T03:06:51.260Z,5.47
2023-01-28T03:09:24.733Z,5.13
2023-01-28T03:12:14.277Z,5.47
2023-01-28T03:15:01.425Z,5.80
2023-01-28T03:17:48.424Z,5.83
2023-01-28T03:20:34.092Z,6.10
2023-01-28T03:23:21.437Z,5.60
2023-01-28T03:26:09.296Z,6.30
2023-01-28T03:28:54.354Z,6.93
2023-01-28T03:31:41.028Z,6.60
2023-01-28T03:34:27.176Z,6.97
2023-01-28T03:36:54.853Z,7.30
2023-01-28T03:39:23.923Z,8.03
2023-01-28T03:42:01.541Z,9.43
2023-01-28T03:44:46.671Z,9.70
2023-01-28T03:47:15.811Z,9.50
2023-01-28T03:49:45.632Z,10.73
2023-01-28T03:52:13.488Z,9.43
2023-01-28T03:54:41.257Z,10.37
2023-01-28T03:57:09.119Z,10.27
2023-01-28T03:59:36.875Z,9.90
2023-01-28T04:02:05.440Z,9.97
2023-01-28T04:04:34.620Z,9.23
2023-01-28T04:07:02.309Z,9.20
2023-01-28T04:09:30.106Z,9.07
2023-01-28T04:11:57.815Z,9.63
2023-01-28T04:14:25.619Z,11.20
2023-01-28T04:16:54.824Z,8.40
2023-01-28T04:19:22.596Z,10.00
2023-01-28T04:21:53.976Z,10.57
2023-01-28T04:24:21.854Z,10.53
2023-01-28T04:26:49.713Z,10.93
2023-01-28T04:29:17.413Z,10.60
2023-01-28T04:31:46.458Z,10.33
2023-01-28T04:34:14.191Z,10.90
2023-01-28T04:36:41.956Z,11.13
2023-01-28T04:39:11.070Z,10.30
2023-01-28T04:41:38.784Z,12.00
2023-01-28T04:44:06.484Z,11.10
2023-01-28T04:46:34.286Z,12.17
2023-01-28T04:49:02.296Z,12.63
2023-01-28T04:51:30.075Z,11.93
2023-01-28T04:53:57.831Z,12.03
2023-01-28T04:56:26.999Z,10.53
2023-01-28T04:58:54.713Z,11.07
2023-01-28T05:01:22.459Z,10.87
2023-01-28T05:03:52.076Z,12.33
2023-01-28T05:06:19.779Z,12.70
2023-01-28T05:08:47.506Z,12.50
2023-01-28T05:11:15.330Z,13.67
2023-01-28T05:13:44.585Z,12.30
2023-01-28T05:16:12.519Z,11.97
2023-01-28T05:18:40.452Z,12.03
2023-01-28T05:23:42.472Z,12.50
2023-01-28T05:26:10.132Z,13.93
2023-01-28T05:28:37.966Z,13.63
2023-01-28T05:31:07.576Z,14.70
2023-01-28T05:33:35.469Z,14.53
2023-01-28T05:36:03.163Z,14.50
2023-01-28T05:38:31.252Z,14.77
2023-01-28T05:40:59.023Z,13.47
2023-01-28T05:43:26.809Z,13.93
2023-01-28T05:45:54.717Z,13.53
2023-01-28T05:48:24.101Z,14.50
2023-01-28T05:50:51.840Z,13.30
2023-01-28T05:53:19.607Z,14.17
2023-01-28T05:55:49.156Z,14.33
2023-01-28T05:58:17.146Z,15.10
2023-01-28T06:00:44.836Z,15.63
2023-01-28T06:03:12.618Z,13.97
2023-01-28T06:05:41.663Z,13.03
2023-01-28T06:08:10.224Z,13.77
2023-01-28T06:10:37.912Z,15.47
2023-01-28T06:13:05.717Z,15.07
2023-01-28T06:15:33.504Z,14.43
2023-01-28T06:18:02.398Z,14.27
2023-01-28T06:20:30.079Z,15.10
2023-01-28T06:22:59.094Z,14.17
2023-01-28T06:25:27.040Z,13.47
2023-01-28T06:27:54.956Z,12.57
2023-01-28T06:30:22.698Z,13.60
2023-01-28T06:32:55.360Z,13.90
2023-01-28T06:35:23.185Z,10.37
2023-01-28T06:37:50.819Z,13.47
2023-01-28T06:40:20.227Z,13.53
2023-01-28T06:42:47.872Z,11.77
2023-01-28T06:45:15.740Z,12.67
2023-01-28T06:47:43.400Z,11.50
2023-01-28T06:50:12.635Z,11.87
2023-01-28T06:52:41.330Z,12.37
2023-01-28T06:55:09.658Z,10.93
2023-01-28T06:57:40.345Z,10.67
2023-01-28T07:00:10.495Z,11.17
2023-01-28T07:02:38.213Z,11.77
2023-01-28T07:05:06.535Z,11.40
2023-01-28T07:07:34.288Z,10.90
2023-01-28T07:10:02.132Z,11.00
2023-01-28T07:12:29.822Z,10.30
2023-01-28T07:14:58.964Z,12.40
2023-01-28T07:17:26.726Z,11.77
2023-01-28T07:19:54.378Z,10.50
2023-01-28T07:22:22.039Z,11.37
2023-01-28T07:24:50.175Z,11.70
2023-01-28T07:27:17.857Z,11.40
2023-01-28T07:29:45.496Z,10.83
2023-01-28T07:32:14.652Z,15.23
2023-01-28T07:34:43.155Z,13.33
2023-01-28T07:37:10.887Z,12.20
2023-01-28T07:39:38.625Z,11.93
2023-01-28T07:42:06.616Z,13.30
2023-01-28T07:44:35.828Z,11.97
2023-01-28T07:47:03.709Z,12.03
2023-01-28T07:49:32.927Z,13.00
2023-01-28T07:52:00.684Z,12.37
2023-01-28T07:54:28.528Z,11.80
2023-01-28T07:56:56.302Z,12.83
2023-01-28T07:59:24.210Z,13.70
2023-01-28T08:01:54.934Z,11.53
2023-01-28T08:04:23.234Z,11.63
2023-01-28T08:06:52.613Z,12.73
2023-01-28T08:09:20.551Z,12.67
2023-01-28T08:11:48.378Z,13.00
2023-01-28T08:14:16.286Z,11.93
2023-01-28T08:16:44.398Z,12.47
2023-01-28T08:19:12.305Z,12.90
2023-01-28T08:21:40.092Z,11.40
2023-01-28T08:24:09.678Z,12.90
2023-01-28T08:26:37.542Z,11.87
2023-01-28T08:29:05.619Z,11.80
2023-01-28T08:31:33.483Z,12.47
2023-01-28T08:34:02.316Z,12.20
2023-01-28T08:36:30.211Z,12.37
2023-01-28T08:38:57.934Z,12.47
2023-01-28T08:41:29.228Z,11.87
2023-01-28T08:43:56.876Z,17.27
2023-01-28T08:46:25.735Z,14.27
2023-01-28T08:48:53.446Z,12.10
2023-01-28T08:51:21.212Z,11.40
2023-01-28T08:53:48.842Z,11.63
2023-01-28T08:56:16.675Z,11.43
2023-01-28T08:58:46.033Z,11.43
2023-01-28T09:01:13.850Z,11.90
2023-01-28T09:03:41.561Z,11.10
2023-01-28T09:06:10.612Z,10.23
2023-01-28T09:08:38.351Z,10.90
2023-01-28T09:11:06.309Z,10.90
2023-01-28T09:13:33.988Z,11.37
2023-01-28T09:16:05.498Z,11.77
2023-01-28T09:18:33.409Z,11.63
2023-01-28T09:21:01.100Z,13.10
2023-01-28T09:24:06.370Z,12.00
2023-01-28T09:26:34.539Z,12.10
2023-01-28T09:29:02.479Z,11.13
2023-01-28T09:31:31.850Z,11.53
2023-01-28T09:33:59.681Z,12.63
2023-01-28T09:36:27.328Z,12.83
2023-01-28T09:38:55.327Z,12.00
2023-01-28T09:41:26.714Z,12.80
2023-01-28T09:44:04.714Z,12.03
2023-01-28T09:46:34.967Z,15.17
2023-01-28T09:49:05.136Z,15.53
2023-01-28T09:51:34.954Z,13.30
2023-01-28T09:54:04.775Z,12.83
2023-01-28T09:56:33.559Z,13.10
2023-01-28T09:59:01.362Z,13.17
2023-01-28T10:01:39.931Z,14.50
2023-01-28T10:04:13.612Z,15.37
2023-01-28T10:06:46.893Z,14.73
2023-01-28T10:09:22.624Z,15.03
2023-01-28T10:11:57.671Z,16.63
2023-01-28T10:14:29.844Z,16.33
2023-01-28T10:17:01.632Z,15.90
2023-01-28T10:19:31.191Z,16.20
2023-01-28T10:22:01.573Z,15.43
2023-01-28T10:24:31.307Z,15.73
2023-01-28T10:26:59.203Z,14.60
2023-01-28T10:29:28.184Z,15.77
2023-01-28T10:31:56.975Z,16.00
2023-01-28T10:34:26.656Z,13.87
2023-01-28T10:36:55.632Z,15.43
2023-01-28T10:39:24.642Z,13.50
2023-01-28T10:41:58.263Z,14.90
2023-01-28T10:44:32.006Z,15.03
2023-01-28T10:47:03.311Z,15.67
2023-01-28T10:49:33.020Z,14.83
2023-01-28T10:52:00.875Z,15.90
2023-01-28T10:54:29.484Z,14.90
2023-01-28T10:56:58.776Z,14.30
2023-01-28T10:59:27.714Z,13.63
2023-01-28T11:01:56.209Z,15.27
2023-01-28T11:04:25.381Z,15.10
2023-01-28T11:06:59.112Z,15.20
2023-01-28T11:09:32.439Z,15.40
2023-01-28T11:12:14.345Z,15.63
2023-01-28T11:14:50.529Z,14.07
2023-01-28T11:17:29.263Z,15.03
2023-01-28T11:19:59.572Z,14.70
2023-01-28T11:22:54.571Z,15.77
2023-01-28T11:25:27.945Z,15.20
2023-01-28T11:28:06.243Z,14.33
2023-01-28T11:33:06.154Z,14.57
2023-01-28T11:35:33.925Z,15.27
2023-01-28T11:38:03.212Z,14.30
2023-01-28T11:40:31.037Z,11.83
2023-01-28T11:42:59.910Z,13.03
2023-01-28T11:45:33.933Z,10.73
2023-01-28T11:48:08.015Z,13.37
2023-01-28T11:50:41.085Z,13.07
2023-01-28T11:53:53.387Z,15.10
2023-01-28T11:56:28.499Z,12.90
2023-01-28T11:59:04.779Z,13.57
2023-01-28T12:01:40.892Z,12.57
2023-01-28T12:04:24.990Z,12.30
2023-01-28T12:07:05.517Z,11.87
2023-01-28T12:09:40.555Z,10.73
2023-01-28T12:12:20.820Z,10.93
2023-01-28T12:15:05.282Z,10.73
2023-01-28T12:17:38.201Z,11.07
2023-01-28T12:20:11.493Z,11.30
2023-01-28T12:23:06.680Z,10.47
2023-01-28T12:25:44.243Z,10.37
2023-01-28T12:28:16.919Z,10.70
2023-01-28T12:30:59.373Z,10.70
2023-01-28T12:33:47.572Z,13.80
2023-01-28T12:36:22.353Z,10.23
2023-01-28T12:38:54.301Z,11.50
2023-01-28T12:41:24.626Z,10.13
2023-01-28T12:43:55.129Z,11.60
2023-01-28T12:46:38.961Z,11.10
2023-01-28T12:49:08.145Z,11.10
2023-01-28T12:51:39.576Z,11.73
2023-01-28T12:54:10.201Z,11.70
2023-01-28T12:56:41.144Z,12.70
2023-01-28T12:59:12.536Z,12.53
2023-01-28T13:01:43.008Z,12.00
2023-01-28T13:04:14.932Z,12.30
2023-01-28T13:06:43.343Z,13.17
2023-01-28T13:09:15.212Z,13.37
2023-01-28T13:11:44.549Z,14.07
2023-01-28T13:14:13.807Z,14.37
2023-01-28T13:16:41.584Z,14.57
2023-01-28T13:19:22.856Z,14.43
2023-01-28T13:21:50.751Z,12.87
2023-01-28T13:24:32.804Z,14.43
2023-01-28T13:27:12.672Z,15.20
2023-01-28T13:29:40.670Z,14.57
2023-01-28T13:32:28.386Z,15.17
2023-01-28T13:34:59.281Z,15.10
2023-01-28T13:37:31.386Z,15.50
2023-01-28T13:40:03.141Z,15.83
2023-01-28T13:42:32.453Z,16.60
2023-01-28T13:45:19.952Z,15.87
2023-01-28T13:47:49.260Z,16.87
2023-01-28T13:50:17.779Z,16.53
2023-01-28T13:52:47.613Z,15.83
2023-01-28T13:55:33.701Z,15.03
2023-01-28T13:58:20.938Z,14.17
2023-01-28T14:01:27.259Z,12.83
2023-01-28T14:04:45.560Z,16.30
2023-01-28T14:07:38.291Z,15.30
2023-01-28T14:10:28.106Z,17.20
2023-01-28T14:13:13.861Z,18.33
2023-01-28T14:16:03.365Z,15.90
2023-01-28T14:18:33.751Z,17.87
2023-01-28T14:21:02.740Z,17.43
2023-01-28T14:23:32.297Z,17.63
2023-01-28T14:26:07.135Z,23.37
2023-01-28T14:28:42.397Z,16.57
2023-01-28T14:31:12.754Z,17.93
2023-01-28T14:33:40.600Z,18.93
2023-01-28T14:36:11.237Z,17.83
2023-01-28T14:38:40.516Z,18.60
2023-01-28T14:41:09.004Z,18.00
2023-01-28T14:43:38.261Z,18.93
2023-01-28T14:46:14.746Z,18.10
2023-01-28T14:48:45.948Z,18.60
2023-01-28T14:51:34.313Z,18.57
2023-01-28T14:54:18.778Z,18.33
2023-01-28T14:56:55.614Z,18.40
2023-01-28T14:59:26.123Z,18.70
2023-01-28T15:01:56.782Z,17.97
2023-01-28T15:04:25.930Z,18.37
2023-01-28T15:06:53.776Z,18.73
2023-01-28T15:09:22.167Z,18.20
2023-01-28T15:11:51.455Z,16.37
2023-01-28T15:14:22.729Z,16.50
2023-01-28T15:16:52.038Z,16.07
2023-01-28T15:19:23.207Z,17.37
2023-01-28T15:21:52.772Z,17.17
2023-01-28T15:24:20.484Z,18.17
2023-01-28T15:26:48.426Z,16.97
2023-01-28T15:29:25.178Z,17.10
2023-01-28T15:31:54.625Z,16.20
2023-01-28T15:34:23.460Z,15.43
2023-01-28T15:36:51.227Z,18.07
2023-01-28T15:39:20.280Z,16.50
2023-01-28T15:41:49.890Z,17.27
2023-01-28T15:44:18.886Z,16.97
2023-01-28T15:46:46.647Z,16.70
2023-01-28T15:49:20.016Z,18.33
2023-01-28T15:51:51.038Z,16.90
2023-01-28T15:54:19.349Z,16.20
2023-01-28T15:56:47.142Z,16.23
2023-01-28T15:59:25.127Z,19.20
2023-01-28T16:01:52.980Z,17.17
2023-01-28T16:04:30.367Z,18.07
2023-01-28T16:06:58.984Z,17.67
2023-01-28T16:09:28.500Z,19.67
2023-01-28T16:12:03.338Z,19.53
2023-01-28T16:14:32.393Z,20.37
2023-01-28T16:17:00.164Z,18.87
2023-01-28T16:19:38.620Z,19.27
2023-01-28T16:22:06.499Z,19.70
2023-01-28T16:24:36.205Z,20.87
2023-01-28T16:27:05.761Z,19.63
2023-01-28T16:29:33.519Z,19.30
2023-01-28T16:32:01.406Z,20.33
2023-01-28T16:34:29.272Z,19.67
2023-01-28T16:36:59.821Z,20.53
2023-01-28T16:39:27.663Z,18.70
2023-01-28T16:41:56.873Z,19.27
2023-01-28T16:44:24.931Z,18.07
2023-01-28T16:46:52.733Z,18.50
2023-01-28T16:49:20.538Z,18.77
2023-01-28T16:51:53.247Z,18.73
2023-01-28T16:54:26.744Z,17.10
2023-01-28T16:56:54.643Z,18.47
2023-01-28T16:59:23.481Z,17.33
2023-01-28T17:01:51.415Z,21.27
2023-01-28T17:04:19.264Z,19.07
2023-01-28T17:06:50.391Z,16.77
2023-01-28T17:09:19.032Z,17.20
2023-01-28T17:11:48.558Z,16.10
2023-01-28T17:14:16.335Z,18.63
2023-01-28T17:16:44.177Z,16.80
2023-01-28T17:19:12.158Z,18.10
2023-01-28T17:21:39.970Z,16.37
2023-01-28T17:24:08.844Z,17.23
2023-01-28T17:26:38.070Z,15.37
2023-01-28T17:29:07.250Z,15.30
2023-01-28T17:31:35.446Z,15.53
2023-01-28T17:34:05.504Z,17.63
2023-01-28T17:36:33.530Z,22.90
2023-01-28T17:39:02.534Z,22.10
2023-01-28T17:41:30.705Z,16.47
2023-01-28T17:43:59.541Z,16.23
2023-01-28T17:46:29.374Z,16.57
2023-01-28T17:48:57.258Z,16.50
2023-01-28T17:51:25.104Z,17.60
2023-01-28T17:53:53.819Z,17.53
2023-01-28T17:56:22.554Z,17.23
2023-01-28T17:58:51.666Z,18.03
2023-01-28T18:01:19.890Z,17.87
2023-01-28T18:03:49.089Z,19.23
2023-01-28T18:06:16.808Z,22.30
2023-01-28T18:08:45.733Z,20.43
2023-01-28T18:11:14.277Z,23.23
2023-01-28T18:13:42.161Z,17.13
2023-01-28T18:16:14.491Z,19.07
2023-01-28T18:18:42.242Z,19.07
2023-01-28T18:21:20.235Z,20.17
2023-01-28T18:23:47.957Z,17.93
2023-01-28T18:26:15.652Z,20.43
2023-01-28T18:28:43.616Z,19.37
2023-01-28T18:31:11.615Z,20.70
2023-01-28T18:33:39.915Z,20.07
2023-01-28T18:36:09.571Z,21.37
2023-01-28T18:38:38.892Z,21.87
2023-01-28T18:41:06.857Z,22.20
2023-01-28T18:43:35.462Z,23.50
2023-01-28T18:46:03.486Z,23.47
2023-01-28T18:48:37.076Z,24.50
2023-01-28T18:51:17.483Z,25.90
2023-01-28T18:53:59.093Z,26.03
2023-01-28T18:56:27.327Z,24.57
2023-01-28T18:58:58.117Z,24.43
2023-01-28T19:01:25.923Z,24.97
2023-01-28T19:03:54.776Z,25.23
2023-01-28T19:06:23.697Z,24.83
2023-01-28T19:08:53.436Z,24.67
2023-01-28T19:11:22.698Z,24.03
2023-01-28T19:13:50.562Z,25.83
2023-01-28T19:16:18.361Z,26.67
2023-01-28T19:18:46.518Z,36.33
2023-01-28T19:21:15.257Z,20.70
2023-01-28T19:23:49.950Z,19.67
2023-01-28T19:26:21.229Z,20.87
2023-01-28T19:28:50.658Z,20.57
2023-01-28T19:31:20.595Z,21.63
2023-01-28T19:33:48.400Z,21.13
2023-01-28T19:36:16.472Z,21.57
2023-01-28T19:38:45.029Z,22.40
2023-01-28T19:41:21.012Z,22.50
2023-01-28T19:43:50.267Z,26.00
2023-01-28T19:46:18.406Z,23.30
2023-01-28T19:48:46.418Z,22.03
2023-01-28T19:51:15.581Z,21.27
2023-01-28T19:53:44.262Z,21.13
2023-01-28T19:56:13.418Z,21.30
2023-01-28T19:58:42.186Z,22.30
2023-01-28T20:01:13.933Z,21.07
2023-01-28T20:03:42.720Z,21.27
2023-01-28T20:06:12.572Z,21.03
2023-01-28T20:08:40.481Z,22.53
2023-01-28T20:11:10.310Z,23.00
2023-01-28T20:13:43.405Z,23.00
2023-01-28T20:16:16.478Z,22.63
2023-01-28T20:18:44.527Z,24.83
2023-01-28T20:21:12.369Z,23.93
2023-01-28T20:23:41.371Z,24.73
2023-01-28T20:26:09.699Z,24.93
2023-01-28T20:28:37.703Z,23.07
2023-01-28T20:31:06.373Z,23.73
2023-01-28T20:33:35.565Z,23.83
2023-01-28T20:36:03.518Z,23.30
2023-01-28T20:38:31.459Z,23.93
2023-01-28T20:40:59.175Z,24.90
2023-01-28T20:43:28.675Z,24.30
2023-01-28T20:46:03.306Z,24.70
2023-01-28T20:48:31.236Z,23.57
2023-01-28T20:51:05.695Z,24.40
2023-01-28T20:53:33.629Z,24.37
2023-01-28T20:56:01.419Z,25.10
2023-01-28T20:58:29.249Z,25.33
2023-01-28T21:00:57.005Z,24.73
2023-01-28T21:03:24.991Z,25.83
2023-01-28T21:05:52.908Z,24.63
2023-01-28T21:08:22.053Z,25.77
2023-01-28T21:10:49.916Z,25.70
2023-01-28T21:13:17.656Z,25.37
2023-01-28T21:15:52.744Z,26.43
2023-01-28T21:18:20.496Z,26.37
2023-01-28T21:20:48.148Z,25.33
2023-01-28T21:23:16.032Z,25.93
2023-01-28T21:25:46.488Z,26.10
2023-01-28T21:28:14.378Z,25.13
2023-01-28T21:30:42.405Z,26.23
2023-01-28T21:33:10.578Z,24.73
2023-01-28T21:35:38.745Z,24.67
2023-01-28T21:38:06.564Z,25.03
2023-01-28T21:40:34.933Z,27.33
2023-01-28T21:43:04.021Z,24.93
2023-01-28T21:45:31.742Z,26.17
2023-01-28T21:47:59.510Z,24.97
2023-01-28T21:50:27.278Z,26.17
2023-01-28T21:52:55.360Z,27.53
2023-01-28T21:55:23.118Z,28.63
2023-01-28T21:58:10.987Z,25.13
2023-01-28T22:00:39.224Z,26.50
2023-01-28T22:03:07.060Z,26.07
2023-01-28T22:05:35.895Z,26.57
2023-01-28T22:08:03.633Z,27.77
2023-01-28T22:10:31.406Z,26.67
2023-01-28T22:12:59.164Z,26.60
2023-01-28T22:15:27.268Z,27.77
2023-01-28T22:17:56.514Z,27.13
2023-01-28T22:20:24.324Z,28.53
2023-01-28T22:22:52.080Z,26.17
2023-01-28T22:25:19.891Z,28.20
2023-01-28T22:27:47.756Z,27.77
2023-01-28T22:30:16.181Z,28.97
2023-01-28T22:32:44.094Z,29.67
2023-01-28T22:35:13.341Z,28.10
2023-01-28T22:37:41.201Z,27.80
2023-01-28T22:40:10.492Z,27.57
2023-01-28T22:42:38.254Z,28.40
2023-01-28T22:45:07.211Z,29.70
2023-01-28T22:47:35.137Z,28.97
2023-01-28T22:50:02.890Z,28.00
2023-01-28T22:52:31.996Z,28.30
2023-01-28T22:54:59.870Z,27.53
2023-01-28T22:57:27.618Z,29.03
2023-01-28T23:00:00.307Z,27.70
2023-01-28T23:02:28.502Z,27.97
2023-01-28T23:04:56.320Z,28.57
2023-01-28T23:07:24.145Z,28.13
2023-01-28T23:09:53.270Z,26.60
2023-01-28T23:12:20.943Z,28.77
2023-01-28T23:15:06.072Z,27.63
2023-01-28T23:17:51.608Z,27.20
2023-01-28T23:20:39.365Z,27.80
2023-01-28T23:23:24.854Z,26.97
2023-01-28T23:25:54.201Z,28.13
2023-01-28T23:28:22.039Z,28.43
2023-01-28T23:40:24.367Z,30.27
2023-01-28T23:42:53.608Z,28.93
2023-01-28T23:45:21.589Z,29.47
2023-01-28T23:47:49.276Z,26.30
2023-01-28T23:50:17.958Z,28.23
2023-01-28T23:52:45.696Z,27.87
2023-01-28T23:55:13.321Z,27.63
2023-01-28T23:57:40.984Z,27.80
